Terminal Aerodrome Forecast
Issued by NWS

Home | Current Version | Previous Version | Text Only | Print | Product List | Glossary On
Versions: 1 2 3 4 5 6 7 8 9 10 11 12 13
000
FTUS45 KRIW 252300
TAFCPR
TAF
KCPR 252320Z 2600/2624 02018G28KT P6SM -SN OVC040
      TEMPO 2600/2604 1SM -SN OVC010
     FM260700 03008KT 3SM -SN SCT008 OVC025
     FM260900 04007KT P6SM VCSH OVC025
     FM261800 02010KT P6SM OVC035=

USA.gov is the U.S. government's official web portal to all federal, state and local government web resources and services.